Change the Weather History Date:

Monday, January 20, 2014

  Actual Average Record
Temperature  
Mean Temperature 24 °F -  
Max Temperature 33 °F 24 °F 51 °F (2006)
Min Temperature 15 °F 12 °F 0 °F (1997)
Degree Days  
Heating Degree Days 41    
Moisture  
Dew Point 16 °F    
Average Humidity 60    
Maximum Humidity 80    
Minimum Humidity 49    
Precipitation  
Precipitation 0.00 in - - ()
Sea Level Pressure  
Sea Level Pressure 29.62 in    
Wind  
Wind Speed 11 mph (West)    
Max Wind Speed 21 mph    
Max Gust Speed 32 mph    
Visibility 10 miles    
Events      
Averages and records for this station are not official NWS values.
T = Trace of Precipitation, MM = Missing Value Source: NWS Daily Summary

Daily Weather History Graph

Daily Weather History Graph

Search for Another Location

Airport or City:

Trip Planner

Search our weather history database for the weather conditions in past years. The results will help you decide how hot, cold, wet, or windy it might be!

Date:

Astronomy

Jan. 20, 2014 Rise Set
Actual Time 7:21 AM EST 4:59 PM EST
Civil Twilight 6:50 AM EST 5:30 PM EST
Nautical Twilight 6:16 AM EST 6:04 PM EST
Astronomical Twilight 5:43 AM EST 6:37 PM EST
Moon 9:36 PM EST (1/20) 9:15 AM EST (1/20)
Length of Visible Light 10h 39m
Length of Day
9h 38m
Waning Gibbous, 83% of the Moon is Illuminated
Jan 20
Waning Gibbous
Jan 24
Last Quarter
Jan 30
New
Feb 6
First Quarter
Feb 14
Full

Hourly Weather History & Observations

Time (EST) Temp. Windchill Dew Point Humidity Pressure Visibility Wind Dir Wind Speed Gust Speed Precip Events Conditions
12:15 AM 28.4 °F 19.7 °F 17.6 °F 64% 29.55 in 10.0 mi West 9.2 mph 19.6 mph N/A   Overcast
12:35 AM 28.4 °F 18.0 °F 17.6 °F 64% 29.54 in 10.0 mi West 12.7 mph 19.6 mph N/A   Overcast
12:55 AM 28.4 °F 19.1 °F 15.8 °F 59% 29.54 in 10.0 mi WSW 10.4 mph 18.4 mph N/A   Overcast
1:15 AM 28.4 °F 19.7 °F 17.6 °F 64% 29.55 in 10.0 mi WSW 9.2 mph 18.4 mph N/A   Overcast
1:35 AM 28.4 °F 19.7 °F 15.8 °F 59% 29.55 in 10.0 mi WSW 9.2 mph 17.3 mph N/A   Overcast
1:55 AM 28.4 °F 19.7 °F 15.8 °F 59% 29.55 in 10.0 mi WSW 9.2 mph 17.3 mph N/A   Overcast
2:15 AM 28.4 °F 20.4 °F 15.8 °F 59% 29.55 in 10.0 mi WSW 8.1 mph - N/A   Overcast
2:35 AM 28.4 °F 18.5 °F 15.8 °F 59% 29.55 in 10.0 mi WSW 11.5 mph - N/A   Overcast
2:55 AM 28.4 °F 20.4 °F 17.6 °F 64% 29.56 in 10.0 mi WSW 8.1 mph 16.1 mph N/A   Overcast
3:15 AM 28.4 °F 18.5 °F 15.8 °F 59% 29.56 in 10.0 mi WSW 11.5 mph 17.3 mph N/A   Overcast
3:35 AM 28.4 °F 21.2 °F 15.8 °F 59% 29.55 in 10.0 mi WSW 6.9 mph - N/A   Overcast
3:55 AM 28.4 °F 21.2 °F 17.6 °F 64% 29.54 in 10.0 mi West 6.9 mph - N/A   Overcast
4:15 AM 28.4 °F 20.4 °F 17.6 °F 64% 29.54 in 10.0 mi WSW 8.1 mph - N/A   Overcast
4:35 AM 28.4 °F 21.2 °F 17.6 °F 64% 29.55 in 10.0 mi West 6.9 mph - N/A   Overcast
4:55 AM 28.4 °F 21.2 °F 17.6 °F 64% 29.54 in 10.0 mi WSW 6.9 mph - N/A   Overcast
5:15 AM 28.4 °F 19.7 °F 17.6 °F 64% 29.53 in 10.0 mi WSW 9.2 mph - N/A   Overcast
5:35 AM 28.4 °F 19.7 °F 17.6 °F 64% 29.54 in 10.0 mi WSW 9.2 mph - N/A   Overcast
5:55 AM 28.4 °F 21.2 °F 17.6 °F 64% 29.54 in 10.0 mi SW 6.9 mph - N/A   Overcast
6:15 AM 30.2 °F 24.3 °F 17.6 °F 60% 29.54 in 10.0 mi WSW 5.8 mph - N/A   Overcast
6:35 AM 30.2 °F 20.8 °F 17.6 °F 60% 29.54 in 10.0 mi WSW 11.5 mph 19.6 mph N/A   Overcast
6:55 AM 30.2 °F 20.8 °F 17.6 °F 60% 29.55 in 10.0 mi West 11.5 mph 16.1 mph N/A   Overcast
7:15 AM 30.2 °F 21.9 °F 17.6 °F 60% 29.55 in 10.0 mi WSW 9.2 mph 19.6 mph N/A   Overcast
7:35 AM 30.2 °F 21.9 °F 19.4 °F 64% 29.54 in 10.0 mi WSW 9.2 mph - N/A   Overcast
7:55 AM 30.2 °F 21.9 °F 19.4 °F 64% 29.55 in 10.0 mi West 9.2 mph - N/A   Overcast
8:15 AM 30.2 °F 20.2 °F 17.6 °F 60% 29.54 in 10.0 mi WSW 12.7 mph 18.4 mph N/A   Overcast
8:35 AM 32.0 °F 23.6 °F 19.4 °F 60% 29.55 in 10.0 mi WSW 10.4 mph 16.1 mph N/A   Overcast
8:55 AM 32.0 °F 23.6 °F 19.4 °F 60% 29.56 in 10.0 mi West 10.4 mph 18.4 mph N/A   Overcast
9:15 AM 32.0 °F 23.6 °F 19.4 °F 60% 29.56 in 10.0 mi WSW 10.4 mph - N/A   Overcast
9:35 AM 32.0 °F 21.2 °F 19.4 °F 60% 29.56 in 10.0 mi WSW 16.1 mph 20.7 mph N/A   Overcast
9:55 AM 32.0 °F 22.5 °F 19.4 °F 60% 29.57 in 10.0 mi West 12.7 mph 21.9 mph N/A   Overcast
10:15 AM 33.8 °F 25.3 °F 19.4 °F 56% 29.57 in 10.0 mi West 11.5 mph 18.4 mph N/A   Overcast
10:35 AM 33.8 °F 25.3 °F 19.4 °F 56% 29.56 in 10.0 mi WSW 11.5 mph 20.7 mph N/A   Overcast
10:55 AM 33.8 °F 27.7 °F 19.4 °F 56% 29.56 in 10.0 mi WSW 6.9 mph 16.1 mph N/A   Overcast
11:15 AM 33.8 °F 25.3 °F 21.2 °F 60% 29.55 in 10.0 mi WSW 11.5 mph 19.6 mph N/A   Overcast
11:35 AM 33.8 °F 25.8 °F 21.2 °F 60% 29.54 in 10.0 mi WSW 10.4 mph 18.4 mph N/A   Overcast
11:55 AM 33.8 °F 25.3 °F 19.4 °F 56% 29.54 in 10.0 mi West 11.5 mph 19.6 mph N/A   Overcast
12:15 PM 33.8 °F 25.3 °F 21.2 °F 60% 29.53 in 10.0 mi West 11.5 mph 20.7 mph N/A   Overcast
12:35 PM 33.8 °F 25.8 °F 21.2 °F 60% 29.53 in 10.0 mi West 10.4 mph 19.6 mph N/A   Overcast
12:55 PM 33.8 °F 26.4 °F 21.2 °F 60% 29.53 in 10.0 mi WSW 9.2 mph 18.4 mph N/A   Overcast
1:15 PM 33.8 °F 25.3 °F 21.2 °F 60% 29.53 in 10.0 mi West 11.5 mph 19.6 mph N/A   Overcast
1:35 PM 33.8 °F 27.0 °F 21.2 °F 60% 29.52 in 10.0 mi West 8.1 mph 18.4 mph N/A   Overcast
1:55 PM 33.8 °F 25.3 °F 21.2 °F 60% 29.54 in 10.0 mi West 11.5 mph 19.6 mph N/A   Overcast
2:15 PM 33.8 °F 25.8 °F 21.2 °F 60% 29.54 in 10.0 mi West 10.4 mph 17.3 mph N/A   Overcast
2:35 PM 33.8 °F 25.8 °F 21.2 °F 60% 29.54 in 9.0 mi West 10.4 mph - N/A   Overcast
2:55 PM 33.8 °F 25.3 °F 21.2 °F 60% 29.56 in 10.0 mi West 11.5 mph 16.1 mph N/A   Overcast
3:15 PM 33.8 °F 26.4 °F 23.0 °F 65% 29.57 in 10.0 mi West 9.2 mph 21.9 mph N/A   Overcast
3:35 PM 33.8 °F 27.0 °F 23.0 °F 65% 29.59 in 10.0 mi West 8.1 mph 17.3 mph N/A   Overcast
3:55 PM 32.0 °F 24.8 °F 24.8 °F 75% 29.60 in 4.0 mi West 8.1 mph - N/A   Overcast
4:15 PM 32.0 °F 20.5 °F 24.8 °F 75% 29.61 in 2.5 mi West 18.4 mph 27.6 mph N/A   Overcast
4:35 PM 30.2 °F 21.9 °F 24.8 °F 80% 29.63 in 3.0 mi WNW 9.2 mph 18.4 mph N/A   Overcast
4:55 PM 30.2 °F 20.8 °F 23.0 °F 75% 29.65 in 10.0 mi WNW 11.5 mph - N/A   Overcast
5:15 PM 30.2 °F 19.3 °F 19.4 °F 64% 29.66 in 10.0 mi West 15.0 mph 25.3 mph N/A   Overcast
5:35 PM 30.2 °F 21.3 °F 19.4 °F 64% 29.68 in 10.0 mi WNW 10.4 mph 16.1 mph N/A   Mostly Cloudy
5:55 PM 28.4 °F 16.2 °F 17.6 °F 64% 29.70 in 9.0 mi NW 17.3 mph 26.5 mph N/A   Overcast
6:15 PM 28.4 °F 15.8 °F 15.8 °F 59% 29.71 in 10.0 mi WNW 18.4 mph 24.2 mph N/A   Overcast
6:35 PM 26.6 °F 12.7 °F 14.0 °F 59% 29.73 in 8.0 mi NW 20.7 mph 32.2 mph N/A   Overcast
6:55 PM 24.8 °F 12.9 °F 12.2 °F 59% 29.74 in 10.0 mi WNW 13.8 mph 29.9 mph N/A   Overcast
7:15 PM 24.8 °F 12.9 °F 12.2 °F 59% 29.76 in 10.0 mi NW 13.8 mph 20.7 mph N/A   Overcast
7:35 PM 24.8 °F 12.9 °F 10.4 °F 54% 29.78 in 10.0 mi WNW 13.8 mph 19.6 mph N/A   Overcast
7:55 PM 23.0 °F 13.1 °F 10.4 °F 59% 29.79 in 10.0 mi WNW 9.2 mph 17.3 mph N/A   Overcast
8:15 PM 21.2 °F 8.3 °F 8.6 °F 58% 29.81 in 10.0 mi WNW 13.8 mph - N/A   Overcast
8:35 PM 21.2 °F 5.6 °F 6.8 °F 54% 29.82 in 10.0 mi NW 20.7 mph 27.6 mph N/A   Overcast
8:55 PM 19.4 °F 3.2 °F 3.2 °F 49% 29.83 in 10.0 mi NNW 20.7 mph 27.6 mph N/A   Overcast
9:15 PM 17.6 °F 1.7 °F 3.2 °F 53% 29.83 in 10.0 mi NW 18.4 mph 27.6 mph N/A   Overcast
9:35 PM 17.6 °F 2.2 °F 1.4 °F 49% 29.83 in 10.0 mi NW 17.3 mph 29.9 mph N/A   Overcast
9:55 PM 17.6 °F 3.7 °F 1.4 °F 49% 29.84 in 10.0 mi WNW 13.8 mph 23.0 mph N/A   Overcast
10:15 PM 17.6 °F 5.7 °F 1.4 °F 49% 29.85 in 10.0 mi NW 10.4 mph - N/A   Overcast
10:35 PM 17.6 °F 5.0 °F 1.4 °F 49% 29.85 in 10.0 mi WNW 11.5 mph 18.4 mph N/A   Overcast
10:55 PM 15.8 °F 1.4 °F 1.4 °F 53% 29.85 in 10.0 mi NW 13.8 mph 20.7 mph N/A   Overcast
11:15 PM 15.8 °F 2.1 °F 1.4 °F 53% 29.85 in 10.0 mi WNW 12.7 mph 19.6 mph N/A   Overcast
11:35 PM 15.8 °F 6.1 °F 1.4 °F 53% 29.86 in 10.0 mi WNW 6.9 mph - N/A   Overcast
11:55 PM 15.8 °F 2.1 °F 1.4 °F 53% 29.85 in 10.0 mi WNW 12.7 mph 17.3 mph N/A   Overcast